Northern Lake Huron: Past 24 Hour Conditions

 

Georgian Bay - 45137

02:00 AM EDT 01 November 2014Buoy position: 45.55N 81.0W
This table is a summary of hourly weather conditions for the past 24 hours.
Date / Time
(EDT)
Wind(knots) Wave height(m) Wave period(s) Pressure(kPa) Air tempC) Water tempC)
01 November 2014
2:00 N 25 gust 31 1.7 5.0 102.5 0 9
1:00 N/A N/A N/A N/A N/A N/A
0:00 NNE 25 gust 29 1.8 6.0 102.4 1 9
31 October 2014
23:00 NNE 25 gust 31 1.8 5.0 102.4 1 9
22:00 NNE 25 gust 33 1.9 6.0 102.4 1 9
21:00 NNE 29 gust 41 2.1 6.0 102.3 1 9
20:00 NNE 27 gust 33 1.8 5.0 102.3 2 9
19:00 N/A N/A N/A N/A N/A N/A
18:00 NNE 31 N/A N/A N/A N/A N/A
17:00 NNE 31 gust 35 2.1 6.0 101.9 2 9
16:00 NNE 29 gust 35 2.1 6.0 101.8 2 9
15:00 NNE 31 gust 39 2.3 7.0 101.7 2 9
14:00 NNE 31 gust 39 2.3 6.0 101.7 2 9
13:00 NNE 29 gust 37 2.3 6.0 101.7 2 9
12:00 NNE 31 gust 37 2.4 6.0 101.6 2 9
11:00 NNE 31 gust 39 2.3 6.0 101.5 2 9
10:00 NNE 29 N/A N/A N/A N/A N/A
9:00 NE 29 gust 35 1.8 5.0 101.4 3 10
8:00 NE 25 gust 29 1.4 4.0 101.3 3 10
7:00 ENE 23 gust 29 1.3 5.0 101.3 4 10
6:00 N/A N/A N/A N/A N/A N/A
5:00 E 21 gust 27 1.1 4.0 101.2 5 10
4:00 E 21 gust 25 1.0 4.0 101.2 5 10
3:00 E 14 gust 18 0.8 4.0 101.3 6 10
2:00 SE 12 gust 16 0.4 3.0 101.4 7 10
 
Map of Great Lakes - Lake Erie and Lake Ontario marine weather areas Egbert N Huron - 45003 W Erie - 45005 S Huron - 45008 Lake Ontario - 45012 Port Stanley - 45132 Prince Edward Point - 45135 Georgian Bay - 45137 Grimsby - 45139 Port Colborne - 45142 South Georgian Bay - 45143 Lake St Clair - 45147 South Lake Huron - 45149 Lake Simcoe - 45151 Lake Nipissing - 45152 North Channel - 45154 Ajax - 45159 Sault Ste. Marie Airport Greater Sudbury Airport North Bay Airport Gore Bay-Manitoulin Airport Great Duck Island Brockville Grenadier Island Kemptville Kingston Airport Collingwood Lagoon City Muskoka Airport Parry Sound Harbour Lake Simcoe Regional Airport Wiarton Airport Goderich Sarnia Chris Hadfield Airport Tobermory Harrow AAFC Port Weller St. Catharines Airport Southeast Shoal Vineland Station Welland-Pelham Windsor Airport Burlington Lift Bridge Cobourg Hamilton Munro Int'l Airport Oshawa Municipal Airport Point Petre Toronto City Centre Airport Toronto Pearson Int'l Airport CFB Trenton Peterborough Municipal Airport Killarney Western Islands CFB Borden Cove Island Long Point Port Colborne Erieau Point Pelee Toronto Buttonville Municipal Airport
Legend: buoyBuoy land stationLand Station » US Marine Weather